Time;durP1;ratioP1;P1;durP2;ratioP2;P2;SDS_P1;SDS_P2;PMS_P1;PMS_P2;Temp;Humidity;BMP_temperature;BMP_pressure;BME280_temperature;BME280_humidity;BME280_pressure;Samples;Min_cycle;Max_cycle;Signal;HPM_P1;HPM_P2
2021/07/11 00:00:24;;;;;;;63.05;58.58;;;11.60;99.90;;;;;;5033952;28;20013;-61
2021/07/11 00:02:51;;;;;;;67.25;62.28;;;11.70;99.90;;;;;;5034151;28;20564;-59
2021/07/11 00:05:20;;;;;;;55.60;51.13;;;11.60;99.90;;;;;;5032323;28;20045;-59
2021/07/11 00:07:48;;;;;;;55.25;50.88;;;11.80;99.90;;;;;;5033772;28;20028;-59
2021/07/11 00:10:16;;;;;;;58.08;53.58;;;11.70;99.90;;;;;;5033870;28;20021;-59
2021/07/11 00:12:46;;;;;;;50.42;46.03;;;11.80;99.90;;;;;;5033755;28;20047;-59
2021/07/11 00:15:17;;;;;;;60.80;56.20;;;11.80;99.90;;;;;;5034056;28;20570;-61
2021/07/11 00:17:44;;;;;;;65.70;60.47;;;11.90;99.90;;;;;;5033761;28;20022;-61
2021/07/11 00:20:13;;;;;;;63.35;58.75;;;12.00;99.90;;;;;;5033710;28;20017;-59
2021/07/11 00:22:42;;;;;;;61.92;56.88;;;12.30;99.90;;;;;;5033612;28;20057;-59
2021/07/11 00:25:13;;;;;;;63.13;58.20;;;12.70;99.90;;;;;;5033638;28;20032;-59
2021/07/11 00:27:41;;;;;;;59.70;55.22;;;13.00;99.90;;;;;;5033517;28;20029;-59
2021/07/11 00:30:09;;;;;;;50.65;46.72;;;13.40;99.90;;;;;;5033394;28;20164;-59
2021/07/11 00:32:37;;;;;;;46.75;42.70;;;13.70;99.90;;;;;;5033411;28;20025;-59
2021/07/11 00:35:05;;;;;;;46.60;42.75;;;13.80;99.90;;;;;;5033305;28;20021;-58
2021/07/11 00:37:32;;;;;;;47.97;44.15;;;13.80;99.90;;;;;;5033263;28;20022;-59
2021/07/11 00:40:00;;;;;;;49.75;45.83;;;13.70;99.90;;;;;;5033370;28;20104;-60
2021/07/11 00:42:27;;;;;;;48.30;44.40;;;13.90;99.90;;;;;;5033238;28;20112;-61
2021/07/11 00:44:54;;;;;;;50.63;46.17;;;14.30;99.90;;;;;;5033330;28;20021;-59
2021/07/11 00:47:22;;;;;;;47.53;43.67;;;14.40;99.90;;;;;;5033270;28;20113;-58
2021/07/11 00:49:49;;;;;;;51.15;47.05;;;14.10;99.90;;;;;;5033217;28;20036;-60
2021/07/11 00:52:17;;;;;;;53.90;49.80;;;13.80;99.90;;;;;;5032945;28;20040;-59
2021/07/11 00:54:44;;;;;;;44.00;40.15;;;13.50;99.90;;;;;;5033066;28;20080;-60
2021/07/11 00:57:12;;;;;;;47.03;43.00;;;13.40;99.90;;;;;;5033157;28;20105;-59
2021/07/11 00:59:40;;;;;;;45.80;41.90;;;13.40;99.90;;;;;;5033024;28;20022;-60
2021/07/11 01:02:26;;;;;;;51.47;47.38;;;13.30;99.90;;;;;;5031901;28;20022;-60
2021/07/11 01:05:06;;;;;;;53.45;49.03;;;13.30;99.90;;;;;;5033118;28;20077;-59
2021/07/11 01:07:43;;;;;;;49.47;45.30;;;13.20;99.90;;;;;;5031889;28;20412;-60
2021/07/11 01:10:23;;;;;;;49.97;45.58;;;13.30;99.90;;;;;;5033168;28;20030;-60
2021/07/11 01:12:54;;;;;;;53.80;49.38;;;13.20;99.90;;;;;;5033212;28;20053;-60
2021/07/11 01:15:23;;;;;;;54.28;49.70;;;13.20;99.90;;;;;;5033091;28;20109;-60
2021/07/11 01:17:53;;;;;;;55.10;50.80;;;13.40;99.90;;;;;;5031879;28;20109;-60
2021/07/11 01:20:41;;;;;;;56.78;51.60;;;13.70;99.90;;;;;;5015918;28;20022;-60
2021/07/11 01:23:13;;;;;;;56.78;52.00;;;14.00;99.90;;;;;;5033070;28;20053;-61
2021/07/11 01:25:48;;;;;;;53.45;48.78;;;14.10;99.90;;;;;;5033138;28;20024;-60
2021/07/11 01:28:23;;;;;;;52.88;48.53;;;14.10;99.90;;;;;;5032881;28;20030;-60
2021/07/11 01:30:54;;;;;;;52.40;48.03;;;14.20;99.90;;;;;;5033057;28;20112;-60
2021/07/11 01:33:22;;;;;;;;;;;14.50;99.90;;;;;;5033342;28;20032;-60
2021/07/11 01:35:50;;;;;;;57.95;53.13;;;14.50;99.90;;;;;;5032978;28;19915;-61
2021/07/11 01:38:19;;;;;;;55.67;50.75;;;14.60;99.90;;;;;;5032958;28;20028;-60
2021/07/11 01:40:49;;;;;;;61.50;57.03;;;14.70;99.90;;;;;;5032531;28;20386;-60
2021/07/11 01:43:22;;;;;;;65.88;61.25;;;14.70;99.90;;;;;;5032805;28;20049;-60
2021/07/11 01:45:55;;;;;;;66.85;61.85;;;14.70;99.90;;;;;;5032582;28;20029;-61
2021/07/11 01:48:23;;;;;;;66.65;61.63;;;15.00;99.90;;;;;;5032669;28;20036;-61
2021/07/11 01:50:55;;;;;;;65.80;59.42;;;15.30;99.90;;;;;;5032521;28;20104;-60
2021/07/11 01:53:34;;;;;;;57.30;52.55;;;15.40;99.90;;;;;;5032798;28;20479;-61
2021/07/11 01:56:04;;;;;;;57.45;52.75;;;15.40;99.90;;;;;;5032599;28;20494;-60
2021/07/11 01:58:32;;;;;;;61.03;56.38;;;15.50;99.90;;;;;;5032558;28;20026;-60
2021/07/11 02:01:01;;;;;;;57.33;53.22;;;15.50;99.90;;;;;;5032618;28;20079;-60
2021/07/11 02:03:28;;;;;;;66.20;61.63;;;15.70;99.90;;;;;;5032338;28;20097;-60
2021/07/11 02:05:56;;;;;;;65.55;60.85;;;15.70;99.90;;;;;;5035786;28;20094;-61
2021/07/11 02:08:23;;;;;;;63.15;59.08;;;15.90;99.90;;;;;;5035935;28;20034;-61
2021/07/11 02:10:53;;;;;;;58.70;54.85;;;15.90;99.90;;;;;;5035999;28;20025;-60
2021/07/11 02:13:37;;;;;;;54.50;50.97;;;15.90;99.90;;;;;;5035799;28;20026;-63
2021/07/11 02:16:11;;;;;;;54.60;50.92;;;16.00;99.90;;;;;;5035986;28;20048;-60
2021/07/11 02:18:40;;;;;;;46.50;43.58;;;16.20;99.90;;;;;;5035822;28;20386;-60
2021/07/11 02:21:08;;;;;;;47.65;44.92;;;16.50;99.90;;;;;;5035699;28;20040;-60
2021/07/11 02:23:36;;;;;;;43.08;40.55;;;17.20;99.90;;;;;;5034540;28;20108;-60
2021/07/11 02:26:09;;;;;;;49.72;46.88;;;17.10;99.90;;;;;;5035751;28;20481;-60
2021/07/11 02:28:38;;;;;;;53.42;50.22;;;16.50;99.90;;;;;;5035770;28;20156;-60
2021/07/11 02:31:11;;;;;;;54.00;50.88;;;16.00;99.90;;;;;;5035509;28;20028;-60
2021/07/11 02:33:40;;;;;;;55.53;52.05;;;15.60;99.90;;;;;;5035357;28;20079;-60
2021/07/11 02:36:21;;;;;;;56.40;52.50;;;15.50;99.90;;;;;;5035422;28;20025;-59
2021/07/11 02:39:08;;;;;;;58.60;54.60;;;15.30;99.90;;;;;;5035549;28;20029;-60
2021/07/11 02:41:38;;;;;;;58.47;54.60;;;15.10;99.90;;;;;;5035356;28;20112;-59
2021/07/11 02:44:10;;;;;;;58.30;54.53;;;15.10;99.90;;;;;;5034159;28;20049;-60
2021/07/11 02:46:42;;;;;;;63.70;59.50;;;14.90;99.90;;;;;;5035184;28;20346;-60
2021/07/11 02:49:13;;;;;;;62.28;58.22;;;15.00;99.90;;;;;;5035397;28;20133;-60
2021/07/11 02:51:45;;;;;;;62.85;58.40;;;15.10;99.90;;;;;;5035196;28;20562;-59
2021/07/11 02:54:18;;;;;;;67.00;62.60;;;15.20;99.90;;;;;;5035216;28;20021;-61
2021/07/11 02:56:49;;;;;;;63.17;59.03;;;15.50;99.90;;;;;;5034956;28;20474;-60
2021/07/11 02:59:17;;;;;;;60.58;56.70;;;15.60;99.90;;;;;;5035075;28;20029;-60
2021/07/11 03:01:45;;;;;;;61.63;57.53;;;15.70;99.90;;;;;;5034971;28;20033;-59
2021/07/11 03:04:14;;;;;;;61.45;56.78;;;15.90;99.90;;;;;;5034917;28;20049;-60
2021/07/11 03:06:44;;;;;;;56.50;52.92;;;15.90;99.90;;;;;;5034801;28;20491;-60
2021/07/11 03:09:12;;;;;;;54.13;50.63;;;15.80;99.90;;;;;;5034922;28;20033;-60
2021/07/11 03:11:42;;;;;;;47.20;44.20;;;15.70;99.90;;;;;;5034720;28;20478;-60
2021/07/11 03:14:11;;;;;;;45.85;43.00;;;15.70;99.90;;;;;;5034685;28;20068;-60
2021/07/11 03:16:51;;;;;;;44.20;41.28;;;15.50;99.90;;;;;;5034810;28;20033;-60
2021/07/11 03:19:19;;;;;;;43.47;40.50;;;15.60;99.90;;;;;;5034655;28;20029;-59
2021/07/11 03:21:49;;;;;;;46.90;43.75;;;15.60;99.90;;;;;;5034775;28;20021;-59
2021/07/11 03:24:18;;;;;;;47.38;44.28;;;15.50;99.90;;;;;;5034657;28;20105;-59
2021/07/11 03:26:46;;;;;;;46.88;43.75;;;15.60;99.90;;;;;;5034497;28;20034;-59
2021/07/11 03:29:26;;;;;;;43.53;40.70;;;15.90;99.90;;;;;;5034497;28;20025;-59
2021/07/11 03:31:56;;;;;;;45.20;42.30;;;16.00;99.90;;;;;;5034599;28;20433;-59
2021/07/11 03:34:29;;;;;;;47.88;44.78;;;16.20;99.90;;;;;;5034364;28;20052;-60
2021/07/11 03:37:00;;;;;;;45.55;42.45;;;16.30;99.90;;;;;;5034375;28;20424;-62
2021/07/11 03:39:29;;;;;;;44.13;41.33;;;16.50;99.90;;;;;;5033157;28;20109;-59
2021/07/11 03:41:59;;;;;;;36.47;33.78;;;16.70;99.90;;;;;;5034437;28;20065;-59
2021/07/11 03:44:31;;;;;;;34.45;31.98;;;16.80;99.90;;;;;;5034453;28;20036;-59
2021/07/11 03:47:01;;;;;;;31.25;29.05;;;17.10;99.90;;;;;;5034122;28;20083;-60
2021/07/11 03:49:30;;;;;;;26.08;24.38;;;17.30;99.90;;;;;;5034264;28;20040;-59
2021/07/11 03:52:03;;;;;;;27.35;25.52;;;17.40;99.90;;;;;;5033950;28;20037;-59
2021/07/11 03:54:36;;;;;;;23.42;21.95;;;17.70;99.90;;;;;;5034253;28;20027;-59
2021/07/11 03:57:06;;;;;;;23.95;22.25;;;17.60;99.90;;;;;;5034178;28;20021;-60
2021/07/11 03:59:34;;;;;;;21.30;19.92;;;17.80;99.90;;;;;;5034512;28;20021;-60
2021/07/11 04:02:05;;;;;;;22.42;21.05;;;17.80;99.90;;;;;;5034025;28;20026;-60
2021/07/11 04:04:33;;;;;;;21.58;20.10;;;18.00;99.90;;;;;;5033868;28;20045;-60
2021/07/11 04:07:01;;;;;;;20.73;19.30;;;18.10;99.90;;;;;;5033956;28;20033;-60
2021/07/11 04:09:30;;;;;;;20.60;19.40;;;17.90;99.90;;;;;;5033950;28;20052;-61
2021/07/11 04:11:58;;;;;;;21.20;19.80;;;17.80;99.90;;;;;;5034381;28;20065;-61
2021/07/11 04:14:26;;;;;;;20.40;19.10;;;17.60;99.90;;;;;;5033694;28;20469;-61
2021/07/11 04:16:58;;;;;;;21.35;19.95;;;17.40;99.90;;;;;;5033612;28;20093;-61
2021/07/11 04:19:28;;;;;;;21.05;19.90;;;17.70;99.90;;;;;;5033691;28;20095;-61
2021/07/11 04:21:58;;;;;;;21.90;20.40;;;17.50;99.90;;;;;;5032325;28;20109;-60
2021/07/11 04:24:26;;;;;;;20.80;19.67;;;17.80;99.90;;;;;;5033649;28;20056;-62
2021/07/11 04:26:56;;;;;;;22.08;20.92;;;17.80;99.90;;;;;;5033149;28;20258;-60
2021/07/11 04:29:25;;;;;;;21.52;20.23;;;18.00;99.90;;;;;;5033324;28;20036;-60
2021/07/11 04:31:53;;;;;;;20.08;18.92;;;17.70;99.90;;;;;;5033279;28;20100;-60
2021/07/11 04:34:27;;;;;;;21.08;19.98;;;17.70;99.90;;;;;;5033225;28;20060;-60
2021/07/11 04:36:56;;;;;;;22.85;21.55;;;18.10;99.90;;;;;;5033232;28;20036;-60
2021/07/11 04:39:24;;;;;;;19.80;18.63;;;18.20;99.90;;;;;;5033278;28;20014;-58
2021/07/11 04:41:51;;;;;;;20.85;19.67;;;17.80;99.90;;;;;;5033061;28;20030;-60
2021/07/11 04:44:20;;;;;;;18.73;17.63;;;17.40;99.90;;;;;;5033303;28;20086;-60
2021/07/11 04:46:47;;;;;;;18.10;16.98;;;17.00;99.90;;;;;;5033064;28;20474;-60
2021/07/11 04:49:14;;;;;;;17.20;16.30;;;16.70;99.90;;;;;;5033054;28;20022;-60
2021/07/11 04:51:42;;;;;;;17.63;16.45;;;16.60;99.90;;;;;;5033126;28;20381;-59
2021/07/11 04:54:09;;;;;;;18.38;17.30;;;16.40;99.90;;;;;;5032915;28;20368;-60
2021/07/11 04:56:37;;;;;;;16.98;15.98;;;16.70;99.90;;;;;;5033000;28;20056;-60
2021/07/11 04:59:05;;;;;;;15.18;14.20;;;16.40;99.90;;;;;;5032859;28;20437;-60
2021/07/11 05:01:34;;;;;;;17.58;16.40;;;16.10;99.90;;;;;;5031724;28;20460;-62
2021/07/11 05:04:02;;;;;;;16.05;14.88;;;16.10;99.90;;;;;;5033027;28;20390;-61
2021/07/11 05:06:29;;;;;;;14.40;13.50;;;15.80;99.90;;;;;;5032959;28;20108;-61
2021/07/11 05:08:57;;;;;;;14.48;13.70;;;15.60;99.90;;;;;;5031776;28;20026;-61
2021/07/11 05:11:24;;;;;;;15.70;14.90;;;15.50;99.90;;;;;;5032943;28;20036;-60
2021/07/11 05:13:51;;;;;;;17.17;16.15;;;15.60;99.90;;;;;;5031709;28;20502;-62
2021/07/11 05:16:19;;;;;;;17.98;16.85;;;15.50;99.90;;;;;;5032689;28;20029;-62
2021/07/11 05:18:46;;;;;;;15.82;15.00;;;15.50;99.90;;;;;;5032750;28;20033;-61
2021/07/11 05:21:13;;;;;;;15.10;13.98;;;15.50;99.90;;;;;;5033010;28;20600;-62
2021/07/11 05:23:41;;;;;;;15.30;14.30;;;15.50;99.90;;;;;;5032911;28;20446;-60
2021/07/11 05:26:08;;;;;;;14.75;13.82;;;15.50;99.90;;;;;;5032620;28;20386;-60
2021/07/11 05:28:36;;;;;;;15.60;14.50;;;15.50;99.90;;;;;;5032499;28;20562;-59
2021/07/11 05:31:03;;;;;;;14.30;13.27;;;15.50;99.90;;;;;;5032359;28;20148;-60
2021/07/11 05:33:30;;;;;;;15.90;14.38;;;15.50;99.90;;;;;;5032520;28;20033;-60
2021/07/11 05:35:58;;;;;;;15.63;14.65;;;15.40;99.90;;;;;;5032897;28;20025;-60
2021/07/11 05:38:25;;;;;;;15.70;14.30;;;15.40;99.90;;;;;;5032855;28;20033;-60
2021/07/11 05:40:53;;;;;;;15.93;14.57;;;15.50;99.90;;;;;;5036446;28;20059;-61
2021/07/11 05:43:21;;;;;;;16.80;15.85;;;15.50;99.90;;;;;;5036818;28;20017;-60
2021/07/11 05:45:48;;;;;;;17.50;16.52;;;15.50;99.90;;;;;;5036546;28;20033;-61
2021/07/11 05:48:15;;;;;;;18.85;17.38;;;15.50;99.90;;;;;;5036299;28;20025;-61
2021/07/11 05:50:43;;;;;;;19.65;18.10;;;15.50;99.90;;;;;;5036302;28;20034;-62
2021/07/11 05:53:10;;;;;;;20.42;19.13;;;15.50;99.90;;;;;;5036282;28;20026;-60
2021/07/11 05:55:41;;;;;;;20.42;19.20;;;15.40;99.90;;;;;;5036174;28;20037;-60
2021/07/11 05:58:09;;;;;;;21.13;19.48;;;15.40;99.90;;;;;;5036218;28;20068;-62
2021/07/11 06:00:37;;;;;;;20.65;19.33;;;15.50;99.90;;;;;;5036194;28;20051;-61
2021/07/11 06:03:05;;;;;;;21.90;20.60;;;15.50;99.90;;;;;;5036185;28;20043;-61
2021/07/11 06:05:32;;;;;;;22.80;21.00;;;15.40;99.90;;;;;;5035887;28;20056;-61
2021/07/11 06:07:59;;;;;;;22.92;21.33;;;15.40;99.90;;;;;;5036260;28;20022;-61
2021/07/11 06:10:27;;;;;;;22.50;21.10;;;15.40;99.90;;;;;;5035865;28;20038;-61
2021/07/11 06:12:54;;;;;;;24.42;22.63;;;15.30;99.90;;;;;;5036046;28;20104;-60
2021/07/11 06:15:21;;;;;;;25.33;23.83;;;15.30;99.90;;;;;;5035935;28;20025;-60
2021/07/11 06:17:49;;;;;;;25.38;23.65;;;15.10;99.90;;;;;;5036081;28;20036;-60
2021/07/11 06:20:17;;;;;;;28.65;26.80;;;15.10;99.90;;;;;;5036026;28;20509;-60
2021/07/11 06:22:44;;;;;;;29.73;27.85;;;15.00;99.90;;;;;;5035706;28;20021;-61
2021/07/11 06:25:11;;;;;;;31.05;28.55;;;14.90;99.90;;;;;;5035723;28;20045;-60
2021/07/11 06:27:42;;;;;;;32.00;29.95;;;14.80;99.90;;;;;;5035568;28;20029;-60
2021/07/11 06:30:13;;;;;;;31.67;29.60;;;14.70;99.90;;;;;;5035910;28;20060;-61
2021/07/11 06:32:40;;;;;;;;;;;14.60;99.90;;;;;;5036054;28;20025;-60
2021/07/11 06:35:10;;;;;;;36.25;33.75;;;14.50;99.90;;;;;;5035527;28;19935;-60
2021/07/11 06:37:37;;;;;;;40.67;37.70;;;14.30;99.90;;;;;;5035421;28;20022;-60
2021/07/11 06:40:06;;;;;;;37.47;34.65;;;14.30;99.90;;;;;;5035386;28;20048;-60
2021/07/11 06:42:34;;;;;;;42.58;39.75;;;14.10;99.90;;;;;;5035325;28;20028;-61
2021/07/11 06:45:01;;;;;;;44.72;41.70;;;14.10;99.90;;;;;;5035366;28;20030;-62
2021/07/11 06:47:29;;;;;;;40.75;37.88;;;14.00;99.90;;;;;;5034266;28;20032;-60
2021/07/11 06:49:56;;;;;;;42.35;39.20;;;13.80;99.90;;;;;;5035223;28;20064;-60
2021/07/11 06:52:23;;;;;;;42.15;39.08;;;13.70;99.90;;;;;;5035422;28;20100;-60
2021/07/11 06:54:51;;;;;;;46.72;42.15;;;13.60;99.90;;;;;;5035325;28;20017;-60
2021/07/11 06:57:19;;;;;;;52.45;48.35;;;13.50;99.90;;;;;;5035233;28;20033;-60
2021/07/11 06:59:46;;;;;;;52.05;48.70;;;13.50;99.90;;;;;;5034827;28;20029;-61
2021/07/11 07:02:14;;;;;;;52.60;49.08;;;13.40;99.90;;;;;;5034878;28;20017;-59
2021/07/11 07:04:41;;;;;;;50.13;46.42;;;13.30;99.90;;;;;;5035099;28;20045;-60
2021/07/11 07:07:09;;;;;;;50.88;47.15;;;13.20;99.90;;;;;;5035080;28;20037;-60
2021/07/11 07:09:36;;;;;;;51.15;46.95;;;13.10;99.90;;;;;;5035010;28;20025;-60
2021/07/11 07:12:04;;;;;;;47.88;44.03;;;13.00;99.90;;;;;;5034913;28;20025;-60
2021/07/11 07:14:31;;;;;;;47.42;43.90;;;12.90;99.90;;;;;;5034861;28;20044;-59
2021/07/11 07:16:59;;;;;;;46.85;43.45;;;12.90;99.90;;;;;;5034692;28;20013;-60
2021/07/11 07:19:26;;;;;;;53.03;49.25;;;12.70;99.90;;;;;;5034710;28;20032;-60
2021/07/11 07:21:53;;;;;;;54.95;50.55;;;12.60;99.90;;;;;;5034998;28;20037;-59
2021/07/11 07:24:21;;;;;;;56.05;51.92;;;12.50;99.90;;;;;;5034617;28;20032;-60
2021/07/11 07:26:48;;;;;;;55.55;51.25;;;12.50;99.90;;;;;;5033071;28;20427;-61
2021/07/11 07:29:16;;;;;;;55.65;51.58;;;12.50;99.90;;;;;;5034537;28;20025;-60
2021/07/11 07:31:44;;;;;;;57.45;53.00;;;12.50;99.90;;;;;;5034897;28;20021;-62
2021/07/11 07:34:11;;;;;;;58.03;53.72;;;12.40;99.90;;;;;;5034369;28;20025;-60
2021/07/11 07:36:38;;;;;;;58.38;53.65;;;12.40;99.90;;;;;;5034310;28;20025;-60
2021/07/11 07:39:06;;;;;;;57.35;53.05;;;12.30;99.90;;;;;;5034322;28;20021;-59
2021/07/11 07:41:34;;;;;;;56.70;52.00;;;12.20;99.90;;;;;;5034205;28;20020;-60
2021/07/11 07:44:01;;;;;;;60.42;55.72;;;12.20;99.90;;;;;;5034540;28;20029;-60
2021/07/11 07:46:28;;;;;;;57.17;52.15;;;12.20;99.90;;;;;;5034284;28;20125;-60
2021/07/11 07:48:55;;;;;;;54.95;50.22;;;12.10;99.90;;;;;;5034209;28;20017;-60
2021/07/11 07:51:23;;;;;;;54.95;50.35;;;12.10;99.90;;;;;;5034156;28;20385;-59
2021/07/11 07:53:50;;;;;;;55.83;50.88;;;12.00;99.90;;;;;;5033944;28;20544;-60
2021/07/11 07:56:18;;;;;;;55.58;50.85;;;12.00;99.90;;;;;;5033987;28;20014;-60
2021/07/11 07:58:45;;;;;;;54.75;50.08;;;12.00;99.90;;;;;;5033976;28;20026;-60
2021/07/11 08:01:12;;;;;;;55.55;50.50;;;11.90;99.90;;;;;;5033717;28;20021;-59
2021/07/11 08:03:40;;;;;;;54.92;50.03;;;11.90;99.90;;;;;;5033502;28;20021;-60
2021/07/11 08:06:07;;;;;;;58.25;53.30;;;11.90;99.90;;;;;;5033759;28;20103;-60
2021/07/11 08:08:35;;;;;;;55.70;51.03;;;11.80;99.90;;;;;;5033623;28;20034;-61
2021/07/11 08:11:02;;;;;;;55.78;51.15;;;11.70;99.90;;;;;;5033699;28;20053;-60
2021/07/11 08:13:30;;;;;;;56.80;52.08;;;11.70;99.90;;;;;;5033748;28;20040;-60
2021/07/11 08:15:57;;;;;;;61.28;55.50;;;11.70;99.90;;;;;;5033775;28;20521;-60
2021/07/11 08:18:25;;;;;;;63.75;57.88;;;11.70;99.90;;;;;;5033522;28;20021;-61
2021/07/11 08:20:52;;;;;;;68.18;61.90;;;11.60;99.90;;;;;;5033503;28;20017;-60
2021/07/11 08:23:19;;;;;;;97.28;87.50;;;11.60;99.90;;;;;;5033728;28;20021;-62
2021/07/11 08:25:47;;;;;;;67.82;61.35;;;11.50;99.90;;;;;;5033520;28;20056;-61
2021/07/11 08:28:14;;;;;;;64.60;58.72;;;11.40;99.90;;;;;;5033374;28;20021;-60
2021/07/11 08:30:42;;;;;;;63.72;57.83;;;11.30;99.90;;;;;;5033480;28;20367;-61
2021/07/11 08:33:09;;;;;;;59.17;53.78;;;11.30;99.90;;;;;;5033215;28;20069;-62
2021/07/11 08:35:36;;;;;;;62.58;56.47;;;11.20;99.90;;;;;;5033147;28;20033;-60
2021/07/11 08:38:04;;;;;;;63.90;57.70;;;11.30;99.90;;;;;;5033193;28;20087;-61
2021/07/11 08:40:34;;;;;;;58.42;52.88;;;11.30;99.90;;;;;;5033247;28;20442;-59
2021/07/11 08:43:07;;;;;;;62.03;56.60;;;11.20;99.90;;;;;;5033524;28;20029;-60
2021/07/11 08:45:38;;;;;;;58.70;53.17;;;11.20;99.90;;;;;;5033252;28;20083;-60
2021/07/11 08:48:05;;;;;;;57.35;51.95;;;11.30;99.90;;;;;;5033690;28;20128;-60
2021/07/11 08:50:35;;;;;;;59.45;53.92;;;11.30;99.90;;;;;;5033197;28;20029;-60
2021/07/11 08:53:02;;;;;;;56.15;51.03;;;11.20;99.90;;;;;;5031808;28;20079;-60
2021/07/11 08:55:30;;;;;;;58.80;53.63;;;11.10;99.90;;;;;;5033026;28;20071;-61
2021/07/11 08:58:01;;;;;;;57.78;52.38;;;11.10;99.90;;;;;;5031868;28;20029;-61
2021/07/11 09:00:32;;;;;;;55.92;50.92;;;11.10;99.90;;;;;;5033160;28;20017;-61
2021/07/11 09:03:00;;;;;;;58.50;53.05;;;11.10;99.90;;;;;;5032991;28;20059;-61
2021/07/11 09:05:33;;;;;;;58.17;52.97;;;11.10;99.90;;;;;;5032839;28;20053;-60
2021/07/11 09:08:19;;;;;;;60.08;54.78;;;11.00;99.90;;;;;;5032925;28;20025;-64
2021/07/11 09:10:53;;;;;;;58.05;53.20;;;11.00;99.90;;;;;;5033353;28;20026;-60
2021/07/11 09:13:22;;;;;;;55.97;51.25;;;11.00;99.90;;;;;;5034333;28;20410;-60
2021/07/11 09:15:53;;;;;;;54.63;49.92;;;11.00;99.90;;;;;;5037060;28;20386;-64
2021/07/11 09:18:27;;;;;;;56.97;52.38;;;10.90;99.90;;;;;;5037256;28;20013;-61
2021/07/11 09:21:06;;;;;;;58.42;53.17;;;10.90;99.90;;;;;;5037345;28;20101;-60
2021/07/11 09:23:34;;;;;;;55.15;50.42;;;10.90;99.90;;;;;;5037015;28;20383;-60
2021/07/11 09:26:11;;;;;;;58.20;53.20;;;10.90;99.90;;;;;;5036955;28;20026;-59
2021/07/11 09:28:50;;;;;;;55.40;50.97;;;10.90;99.90;;;;;;5035552;28;20568;-60
2021/07/11 09:31:20;;;;;;;57.58;52.70;;;10.80;99.90;;;;;;5037056;28;20017;-60
2021/07/11 09:33:58;;;;;;;59.40;54.30;;;10.70;99.90;;;;;;5036862;28;20025;-60
2021/07/11 09:36:27;;;;;;;58.22;53.53;;;10.70;99.90;;;;;;5036820;28;20520;-61
2021/07/11 09:39:00;;;;;;;62.40;57.38;;;10.70;99.90;;;;;;5036709;28;20037;-61
2021/07/11 09:41:33;;;;;;;62.63;57.10;;;10.70;99.90;;;;;;5036802;28;20081;-61
2021/07/11 09:44:04;;;;;;;63.85;58.10;;;10.70;99.90;;;;;;5036834;28;20029;-61
2021/07/11 09:46:33;;;;;;;59.70;54.70;;;10.60;99.90;;;;;;5036707;28;20028;-59
2021/07/11 09:49:03;;;;;;;58.38;53.28;;;10.70;99.90;;;;;;5036702;28;20080;-60
2021/07/11 09:51:31;;;;;;;62.27;57.07;;;10.60;99.90;;;;;;5036917;28;20026;-60
2021/07/11 09:54:15;;;;;;;58.30;53.35;;;10.60;99.90;;;;;;5036209;28;20026;-61
2021/07/11 09:56:46;;;;;;;58.03;52.40;;;10.60;99.90;;;;;;5036463;28;20021;-59
2021/07/11 09:59:18;;;;;;;58.88;53.88;;;10.60;99.90;;;;;;5036163;28;20429;-59
2021/07/11 10:01:46;;;;;;;60.42;54.22;;;10.60;99.90;;;;;;5036376;28;20075;-59
2021/07/11 10:04:13;;;;;;;59.67;53.97;;;10.60;99.90;;;;;;5035945;28;20091;-59
2021/07/11 10:06:41;;;;;;;59.25;54.15;;;10.50;99.90;;;;;;5036278;28;20028;-60
2021/07/11 10:09:11;;;;;;;60.20;54.95;;;10.50;99.90;;;;;;5035979;28;20017;-60
2021/07/11 10:11:38;;;;;;;60.47;55.25;;;10.50;99.90;;;;;;5036061;28;20029;-57
2021/07/11 10:14:06;;;;;;;64.25;58.90;;;10.40;99.90;;;;;;5035778;28;20068;-59
2021/07/11 10:16:36;;;;;;;59.35;54.15;;;10.30;99.90;;;;;;5035972;28;20496;-60
2021/07/11 10:19:07;;;;;;;60.47;55.05;;;10.30;99.90;;;;;;5035920;28;20022;-60
2021/07/11 10:21:36;;;;;;;63.33;58.03;;;10.20;99.90;;;;;;5035936;28;20336;-60
2021/07/11 10:24:15;;;;;;;62.85;57.05;;;10.20;99.90;;;;;;5035707;28;20019;-59
2021/07/11 10:26:42;;;;;;;63.63;58.28;;;10.20;99.90;;;;;;5035393;28;20478;-60
2021/07/11 10:29:18;;;;;;;61.97;56.72;;;10.20;99.90;;;;;;5035605;28;20029;-59
2021/07/11 10:31:50;;;;;;;62.72;57.40;;;10.10;99.90;;;;;;5035750;28;20124;-60
2021/07/11 10:34:34;;;;;;;64.88;58.67;;;10.10;99.90;;;;;;5035474;28;20471;-57
2021/07/11 10:37:17;;;;;;;64.15;58.70;;;10.10;99.90;;;;;;5035612;28;20022;-59
2021/07/11 10:39:44;;;;;;;65.68;60.30;;;10.00;99.90;;;;;;5035488;28;20055;-60
2021/07/11 10:42:12;;;;;;;62.00;56.28;;;10.00;99.90;;;;;;5035583;28;20382;-59
2021/07/11 10:44:40;;;;;;;61.95;56.30;;;10.00;99.90;;;;;;5035264;28;20032;-59
2021/07/11 10:47:07;;;;;;;67.53;61.97;;;9.90;99.90;;;;;;5035260;28;20025;-61
2021/07/11 10:49:37;;;;;;;68.53;62.80;;;9.90;99.90;;;;;;5035559;28;20057;-59
2021/07/11 10:52:10;;;;;;;66.78;61.72;;;9.80;99.90;;;;;;5035312;28;20025;-59
2021/07/11 10:54:49;;;;;;;69.18;63.25;;;9.80;99.90;;;;;;5034977;28;20022;-60
2021/07/11 10:57:26;;;;;;;69.93;64.35;;;9.70;99.90;;;;;;5035274;28;20095;-59
2021/07/11 10:59:54;;;;;;;70.72;64.80;;;9.70;99.90;;;;;;5035398;28;20542;-59
2021/07/11 11:02:28;;;;;;;70.07;64.47;;;9.80;99.90;;;;;;5035135;28;20026;-62
2021/07/11 11:05:12;;;;;;;74.05;67.72;;;9.80;99.90;;;;;;5034874;28;20049;-59
2021/07/11 11:07:41;;;;;;;62.63;57.05;;;9.80;99.90;;;;;;5035099;28;20033;-61
2021/07/11 11:10:29;;;;;;;67.53;61.70;;;9.80;99.90;;;;;;5034920;28;20017;-60
2021/07/11 11:13:11;;;;;;;67.88;62.30;;;9.70;99.90;;;;;;5035037;28;20040;-62
2021/07/11 11:15:45;;;;;;;64.88;58.97;;;9.80;99.90;;;;;;5034817;28;20065;-60
2021/07/11 11:18:38;;;;;;;63.60;57.97;;;9.80;99.90;;;;;;5034975;28;20024;-59
2021/07/11 11:21:07;;;;;;;64.75;58.95;;;9.80;99.90;;;;;;5034614;28;20049;-60
2021/07/11 11:23:48;;;;;;;67.57;61.50;;;9.80;99.90;;;;;;5034651;28;20021;-60
2021/07/11 11:26:24;;;;;;;66.15;60.65;;;9.70;99.90;;;;;;5034657;28;20049;-58
2021/07/11 11:28:54;;;;;;;64.93;59.35;;;9.70;99.90;;;;;;5034444;28;20033;-59
2021/07/11 11:31:27;;;;;;;69.40;63.55;;;9.60;99.90;;;;;;5034490;28;20026;-59
2021/07/11 11:34:05;;;;;;;66.07;60.63;;;9.60;99.90;;;;;;5034310;28;20040;-60
2021/07/11 11:36:43;;;;;;;66.78;60.88;;;9.60;99.90;;;;;;5033298;28;20052;-60
2021/07/11 11:39:20;;;;;;;70.72;64.75;;;9.60;99.90;;;;;;5034287;28;20040;-60
2021/07/11 11:41:48;;;;;;;68.55;62.75;;;9.50;99.90;;;;;;5034253;28;20037;-60
2021/07/11 11:44:21;;;;;;;67.00;61.08;;;9.50;99.90;;;;;;5034200;28;20025;-58
2021/07/11 11:46:53;;;;;;;72.57;66.50;;;9.50;99.90;;;;;;5034245;28;20036;-58
2021/07/11 11:49:23;;;;;;;73.13;67.05;;;9.60;99.90;;;;;;5034345;28;20032;-58
2021/07/11 11:51:52;;;;;;;71.95;65.75;;;9.50;99.90;;;;;;5034271;28;20037;-59
2021/07/11 11:54:34;;;;;;;75.28;69.13;;;9.60;99.90;;;;;;5033999;28;20064;-59
2021/07/11 11:57:03;;;;;;;74.05;68.15;;;9.50;99.90;;;;;;5034070;28;20014;-59
2021/07/11 11:59:31;;;;;;;72.35;66.70;;;9.50;99.90;;;;;;5033860;28;20037;-58
2021/07/11 12:02:06;;;;;;;78.72;72.10;;;9.40;99.90;;;;;;5033844;28;20021;-58
2021/07/11 12:04:34;;;;;;;75.18;68.90;;;9.50;99.90;;;;;;5033690;28;20045;-59
2021/07/11 12:07:03;;;;;;;72.13;65.95;;;9.40;99.90;;;;;;5034067;28;20021;-58
2021/07/11 12:09:32;;;;;;;74.97;68.47;;;9.40;99.90;;;;;;5033595;28;20053;-59
2021/07/11 12:12:09;;;;;;;77.82;71.38;;;9.50;99.90;;;;;;5033739;28;20036;-59
2021/07/11 12:14:39;;;;;;;77.57;71.28;;;9.50;99.90;;;;;;5033752;28;20026;-59
2021/07/11 12:17:12;;;;;;;71.63;65.43;;;9.50;99.90;;;;;;5032457;28;20049;-60
2021/07/11 12:19:47;;;;;;;71.10;65.28;;;9.50;99.90;;;;;;5033777;28;20029;-58
2021/07/11 12:22:24;;;;;;;76.63;70.78;;;9.40;99.90;;;;;;5033579;28;20021;-59
2021/07/11 12:25:18;;;;;;;76.63;70.55;;;9.30;99.90;;;;;;5033422;28;20376;-56
2021/07/11 12:27:49;;;;;;;73.47;67.38;;;9.20;99.90;;;;;;5033750;28;20025;-58
2021/07/11 12:30:21;;;;;;;68.82;63.05;;;9.20;99.90;;;;;;5033520;28;20048;-59
2021/07/11 12:32:54;;;;;;;74.93;69.00;;;9.10;99.90;;;;;;5033751;28;20033;-57
2021/07/11 12:35:25;;;;;;;72.97;67.10;;;9.10;99.90;;;;;;5033313;28;20032;-58
2021/07/11 12:38:03;;;;;;;76.15;69.88;;;9.10;99.90;;;;;;5032347;28;20021;-58
2021/07/11 12:40:33;;;;;;;79.70;73.47;;;9.10;99.90;;;;;;5033442;28;20026;-58
2021/07/11 12:43:28;;;;;;;78.20;72.30;;;9.20;99.90;;;;;;5033285;28;20064;-59